Noatak, AK

3:49 PM AKST on January 30, 2015 (GMT -0900)
Wien Memorial | Change Station
CLOSE
Current Station
Airport
Location: Kotzebue,
Elevation: 16 ft
Nearby Weather Stations

Elev 16 ft 66.88 °N, 162.60 °W | Updated 47 minutes ago

Blowing Snow
Blowing Snow
4 °F
Feels Like -19 °F
N
26
Wind Variable Wind from ESE
Gusts 33 mph

Today
High -- | Low -- °F
--% Chance of Precip.
Yesterday
High -- | Low -- °F
Precip. -- in
11:08 AM 5:03 PM
Waxing Gibbous, 86% visible
Pressure 30.55 in
Visibility 5.0 miles
Clouds Overcast 1500 ft
Windchill -19 °F
Dew Point -2 °F
Humidity 76%
Rainfall 0.00 in
Snow Depth Not available.
UV 0 out of 12
Pollen Not available.
Air Quality Not available.
Flu Activity Not available.
SPECI PAOT 310002Z 12023G29KT 5SM BLSN OVC015 M16/M19 A3055 RMK AO2 PK WND 12029/2358 T11561189

More Conditions Fewer Conditions

Pressure 30.55 in
Visibility 5.0 miles
Clouds Overcast 1500 ft
Windchill -19 °F
Dew Point -2 °F
Humidity 76%
Rainfall 0.00 in
Snow Depth Not available.
UV 0 out of 12
Pollen Not available.
Air Quality Not available.
Flu Activity Not available.
SPECI PAOT 310002Z 12023G29KT 5SM BLSN OVC015 M16/M19 A3055 RMK AO2 PK WND 12029/2358 T11561189

More Conditions Fewer Conditions

10-Day Weather Forecast

Almanac

Astronomy

Jan. 30, 2015 Rise Set
Actual Time
Civil Twilight
Nautical Twilight
Astronomical Twilight
Moon
Length of Visible Light
Length of Day
Tomorrow will be .
, % of the Moon is Illuminated

Today's Extremes

State Highs State Lows

Community

WunderPhotos

Upload Photos

1,791,942 photos uploaded!

WunderBlogs® & News

Nearby

Air Quality

  Air Quality AQ Index Pollutant
Not available.

Snow Depth

Station Depth Elevation

Earthquake Activity

City Distance Mag. Time & Date
Minimum magnitude displayed is 2.5.

Coastal Water Temperatures

Place Temperature

Nearby Weather Stations